Time;durP1;ratioP1;P1;durP2;ratioP2;P2;SDS_P1;SDS_P2;PMS_P1;PMS_P2;Temp;Humidity;BMP_temperature;BMP_pressure;BME280_temperature;BME280_humidity;BME280_pressure;Samples;Min_cycle;Max_cycle;Signal;HPM_P1;HPM_P2
2022/01/26 00:07:22;;;;;;;118.88;24.67;;;;;;;;;;4941288;28;20101;-60
2022/01/26 00:09:53;;;;;;;101.32;22.10;;;;;;;;;;4940511;28;21020;-60
2022/01/26 00:12:21;;;;;;;95.72;22.52;;;;;;;;;;4935141;28;20057;-61
2022/01/26 00:14:49;;;;;;;108.38;22.25;;;;;;;;;;4942411;28;20035;-61
2022/01/26 00:17:24;;;;;;;105.88;24.80;;;;;;;;;;4936695;28;20031;-61
2022/01/26 00:19:56;;;;;;;106.68;23.05;;;;;;;;;;4942968;28;20030;-60
2022/01/26 00:22:54;;;;;;;116.97;23.58;;;;;;;;;;4923115;28;20046;-61
2022/01/26 00:41:09;;;;;;;110.72;22.30;;;;;;;;;;4941594;28;20165;-60
2022/01/26 00:43:38;;;;;;;130.90;25.77;;;;;;;;;;4937567;28;20045;-60
2022/01/26 00:46:08;;;;;;;107.88;21.88;;;;;;;;;;4936378;28;20474;-60
2022/01/26 00:48:36;;;;;;;125.63;24.85;;;;;;;;;;4951311;28;20086;-60
2022/01/26 00:51:06;;;;;;;127.53;24.95;;;;;;;;;;4936582;28;20397;-61
2022/01/26 00:53:38;;;;;;;114.75;23.02;;;;;;;;;;4939468;28;20043;-60
2022/01/26 00:56:08;;;;;;;114.60;25.45;;;;;;;;;;4952331;28;20031;-60
2022/01/26 00:58:34;;;;;;;115.57;24.85;;;;;;;;;;4950897;28;20043;-60
2022/01/26 01:01:03;;;;;;;116.78;24.83;;;;;;;;;;4952429;28;20035;-60
2022/01/26 01:03:30;;;;;;;116.45;24.27;;;;;;;;;;4936333;28;20030;-60
2022/01/26 01:06:06;;;;;;;114.03;26.00;;;;;;;;;;4936964;28;20070;-59
2022/01/26 01:08:34;;;;;;;112.03;23.17;;;;;;;;;;4936533;28;20105;-61
2022/01/26 01:11:04;;;;;;;121.97;26.02;;;;;;;;;;4907014;28;1104301;-60
2022/01/26 01:13:34;;;;;;;144.52;25.50;;;;;;;;;;4960940;28;20099;-61
2022/01/26 01:16:00;;;;;;;130.43;24.92;;;;;;;;;;4954255;28;20031;-60
2022/01/26 01:18:40;;;;;;;122.05;24.40;;;;;;;;;;4946650;28;20027;-60
2022/01/26 01:31:58;;;;;;;106.55;22.65;;;;;;;;;;4963023;28;20133;-60
2022/01/26 01:34:19;;;;;;;119.38;24.38;;;;;;;;;;4945349;28;20478;-59
2022/01/26 01:36:50;;;;;;;108.97;21.73;;;;;;;;;;4961286;28;20031;-60
2022/01/26 01:39:16;;;;;;;127.35;26.05;;;;;;;;;;4963098;28;20042;-60
2022/01/26 01:41:46;;;;;;;112.90;25.13;;;;;;;;;;4947310;28;20474;-60
2022/01/26 01:44:12;;;;;;;104.68;23.98;;;;;;;;;;4962293;28;20046;-60
2022/01/26 01:46:42;;;;;;;114.10;22.13;;;;;;;;;;4961081;28;20037;-60
2022/01/26 01:49:09;;;;;;;115.60;22.88;;;;;;;;;;4960020;28;20033;-61
2022/01/26 01:51:41;;;;;;;109.93;24.98;;;;;;;;;;4935477;28;20026;-61
2022/01/26 01:54:13;;;;;;;108.10;22.08;;;;;;;;;;4946265;28;20676;-59
2022/01/26 01:56:41;;;;;;;117.23;22.73;;;;;;;;;;4961231;28;20450;-59
2022/01/26 01:59:07;;;;;;;106.25;21.02;;;;;;;;;;4962177;28;20030;-60
2022/01/26 02:01:37;;;;;;;103.93;21.95;;;;;;;;;;4940904;28;20185;-60
2022/01/26 02:04:08;;;;;;;116.50;24.05;;;;;;;;;;4950722;28;20050;-61
2022/01/26 02:06:34;;;;;;;101.93;23.05;;;;;;;;;;4962211;28;20198;-61
2022/01/26 02:09:00;;;;;;;122.45;23.10;;;;;;;;;;4942747;28;20484;-59
2022/01/26 02:11:26;;;;;;;119.28;23.45;;;;;;;;;;4950569;28;20796;-61
2022/01/26 02:16:33;;;;;;;112.90;24.35;;;;;;;;;;4959495;28;20037;-61
2022/01/26 02:59:48;;;;;;;124.82;24.75;;;;;;;;;;4958473;28;20088;-61
2022/01/26 03:02:25;;;;;;;124.85;26.23;;;;;;;;;;4944445;28;20058;-60
2022/01/26 03:04:56;;;;;;;121.65;27.15;;;;;;;;;;4933045;28;20062;-61
2022/01/26 03:10:14;;;;;;;120.65;26.58;;;;;;;;;;4960841;28;20042;-61
2022/01/26 03:12:48;;;;;;;120.35;26.27;;;;;;;;;;4961057;28;20159;-60
2022/01/26 03:15:25;;;;;;;125.68;26.20;;;;;;;;;;4940801;28;20126;-62
2022/01/26 03:20:32;;;;;;;126.25;26.30;;;;;;;;;;4951314;28;20066;-61
2022/01/26 03:28:42;;;;;;;108.07;25.23;;;;;;;;;;4946142;28;20035;-61
2022/01/26 03:36:32;;;;;;;126.38;24.65;;;;;;;;;;4961533;28;20511;-61
2022/01/26 03:39:08;;;;;;;125.60;27.17;;;;;;;;;;4958490;28;20030;-61
2022/01/26 03:41:43;;;;;;;117.88;26.75;;;;;;;;;;4960627;28;20031;-61
2022/01/26 03:44:09;;;;;;;101.25;24.70;;;;;;;;;;4958512;28;20033;-61
2022/01/26 03:46:40;;;;;;;125.18;25.52;;;;;;;;;;4951285;28;20026;-61
2022/01/26 03:49:06;;;;;;;121.28;24.67;;;;;;;;;;4949511;28;20018;-61
2022/01/26 03:51:34;;;;;;;102.43;24.15;;;;;;;;;;4960710;28;20102;-61
2022/01/26 03:54:02;;;;;;;122.25;26.13;;;;;;;;;;4932709;28;20493;-61
2022/01/26 03:56:31;;;;;;;95.38;23.40;;;;;;;;;;4931835;28;20632;-61
2022/01/26 03:58:59;;;;;;;112.47;27.20;;;;;;;;;;4947358;28;20417;-61
2022/01/26 04:01:29;;;;;;;104.53;24.77;;;;;;;;;;4947790;28;20116;-61
2022/01/26 04:04:00;;;;;;;107.47;24.73;;;;;;;;;;4943605;28;20084;-60
2022/01/26 04:06:31;;;;;;;102.03;24.02;;;;;;;;;;4935259;28;21001;-62
2022/01/26 04:08:59;;;;;;;97.20;23.88;;;;;;;;;;4958353;28;20037;-61
2022/01/26 04:13:55;;;;;;;107.18;25.42;;;;;;;;;;4960007;28;20043;-60
2022/01/26 04:16:22;;;;;;;92.82;20.80;;;;;;;;;;4944527;28;20043;-60
2022/01/26 04:18:50;;;;;;;99.90;22.33;;;;;;;;;;4933364;28;20042;-60
2022/01/26 04:23:55;;;;;;;95.65;23.27;;;;;;;;;;4959400;28;20034;-60
2022/01/26 04:26:27;;;;;;;99.60;21.33;;;;;;;;;;4959129;28;20027;-60
2022/01/26 04:28:58;;;;;;;97.07;21.85;;;;;;;;;;4958888;28;20046;-62
2022/01/26 04:31:24;;;;;;;105.28;22.42;;;;;;;;;;4958985;28;20431;-60
2022/01/26 04:33:53;;;;;;;100.85;23.83;;;;;;;;;;4959973;28;20131;-62
2022/01/26 04:36:28;;;;;;;95.63;22.75;;;;;;;;;;4920085;28;20034;-61
2022/01/26 04:38:57;;;;;;;93.22;21.60;;;;;;;;;;4955633;28;20053;-61
2022/01/26 04:41:37;;;;;;;100.45;21.75;;;;;;;;;;4960582;28;20033;-61
2022/01/26 04:44:16;;;;;;;98.22;20.70;;;;;;;;;;4948574;28;20369;-61
2022/01/26 04:46:41;;;;;;;86.57;19.83;;;;;;;;;;4950670;28;20050;-60
2022/01/26 04:49:09;;;;;;;82.70;22.60;;;;;;;;;;4949621;28;20030;-61
2022/01/26 04:51:35;;;;;;;114.85;24.83;;;;;;;;;;4931156;28;20069;-60
2022/01/26 04:54:03;;;;;;;94.72;22.05;;;;;;;;;;4946948;28;20375;-61
2022/01/26 04:56:28;;;;;;;99.85;22.30;;;;;;;;;;4932674;28;20038;-60
2022/01/26 04:58:54;;;;;;;87.85;20.60;;;;;;;;;;4958980;28;20038;-61
2022/01/26 05:01:23;;;;;;;81.30;21.08;;;;;;;;;;4959588;28;20046;-61
2022/01/26 05:03:49;;;;;;;94.10;21.63;;;;;;;;;;4948009;28;20923;-61
2022/01/26 05:06:19;;;;;;;91.97;21.70;;;;;;;;;;4960163;28;20042;-61
2022/01/26 05:08:47;;;;;;;86.60;20.48;;;;;;;;;;4931981;28;20041;-61
2022/01/26 05:11:21;;;;;;;83.53;19.25;;;;;;;;;;4941721;28;20449;-61
2022/01/26 05:13:53;;;;;;;82.20;21.30;;;;;;;;;;4959396;28;20027;-61
2022/01/26 05:16:21;;;;;;;93.28;21.10;;;;;;;;;;4946591;28;20034;-61
2022/01/26 05:18:49;;;;;;;89.65;20.25;;;;;;;;;;4941551;28;20036;-61
2022/01/26 05:21:17;;;;;;;87.10;20.52;;;;;;;;;;4942218;28;20040;-61
2022/01/26 05:23:42;;;;;;;91.28;21.92;;;;;;;;;;4942746;28;20120;-61
2022/01/26 05:26:10;;;;;;;91.05;21.05;;;;;;;;;;4960358;28;20371;-61
2022/01/26 05:28:39;;;;;;;90.28;21.85;;;;;;;;;;4959562;28;20563;-61
2022/01/26 05:31:07;;;;;;;78.93;18.50;;;;;;;;;;4962180;28;20108;-61
2022/01/26 05:33:35;;;;;;;99.03;22.15;;;;;;;;;;4935318;28;20043;-61
2022/01/26 05:36:01;;;;;;;76.05;18.92;;;;;;;;;;4950421;28;21825;-61
2022/01/26 05:38:27;;;;;;;90.35;21.23;;;;;;;;;;4961968;28;20345;-60
2022/01/26 05:40:58;;;;;;;84.45;20.10;;;;;;;;;;4931473;28;20034;-61
2022/01/26 05:43:24;;;;;;;86.53;22.40;;;;;;;;;;4950199;28;20149;-60
2022/01/26 05:45:53;;;;;;;93.55;21.73;;;;;;;;;;4941411;28;20599;-61
2022/01/26 05:48:19;;;;;;;79.20;18.88;;;;;;;;;;4944069;28;20108;-61
2022/01/26 05:50:51;;;;;;;83.18;20.05;;;;;;;;;;4948716;28;20118;-59
2022/01/26 05:53:24;;;;;;;72.45;19.33;;;;;;;;;;4956274;28;20027;-62
2022/01/26 05:55:51;;;;;;;90.25;20.17;;;;;;;;;;4943415;28;20045;-61
2022/01/26 05:58:16;;;;;;;88.40;20.17;;;;;;;;;;4959364;28;20057;-61
2022/01/26 06:00:44;;;;;;;76.30;19.30;;;;;;;;;;4962512;28;20058;-61
2022/01/26 06:03:10;;;;;;;83.65;18.75;;;;;;;;;;4943883;28;20031;-61
2022/01/26 06:05:38;;;;;;;92.20;20.58;;;;;;;;;;4962391;28;20033;-61
2022/01/26 06:08:04;;;;;;;87.70;21.67;;;;;;;;;;4949561;28;20052;-61
2022/01/26 06:10:32;;;;;;;73.72;20.17;;;;;;;;;;4950269;28;20030;-62
2022/01/26 06:13:02;;;;;;;92.53;20.73;;;;;;;;;;4963003;28;20046;-61
2022/01/26 06:15:35;;;;;;;78.22;18.33;;;;;;;;;;4947496;28;20207;-61
2022/01/26 06:18:06;;;;;;;96.00;21.13;;;;;;;;;;4959431;28;20457;-60
2022/01/26 06:20:31;;;;;;;74.32;19.13;;;;;;;;;;4962618;28;20061;-60
2022/01/26 06:22:57;;;;;;;92.25;20.23;;;;;;;;;;4959231;28;20650;-60
2022/01/26 06:25:26;;;;;;;82.10;19.70;;;;;;;;;;4931467;28;20096;-62
2022/01/26 06:28:01;;;;;;;85.22;20.65;;;;;;;;;;4951015;28;20039;-61
2022/01/26 06:30:27;;;;;;;80.93;19.13;;;;;;;;;;4955514;28;20026;-61
2022/01/26 06:32:53;;;;;;;92.68;20.25;;;;;;;;;;4953183;28;20099;-60
2022/01/26 06:35:18;;;;;;;78.88;20.70;;;;;;;;;;4963244;28;20049;-60
2022/01/26 06:37:44;;;;;;;88.85;19.08;;;;;;;;;;4951737;28;20034;-60
2022/01/26 06:40:12;;;;;;;85.85;19.08;;;;;;;;;;4961538;28;20031;-62
2022/01/26 06:42:51;;;;;;;89.25;20.10;;;;;;;;;;4941623;28;20035;-60
2022/01/26 06:45:22;;;;;;;86.53;20.33;;;;;;;;;;4960027;28;20038;-60
2022/01/26 06:48:15;;;;;;;94.95;23.10;;;;;;;;;;4960123;28;20113;-60
2022/01/26 06:50:43;;;;;;;78.80;20.98;;;;;;;;;;4961210;28;20038;-60
2022/01/26 06:56:59;;;;;;;86.30;21.52;;;;;;;;;;4961686;28;20580;-61
2022/01/26 06:59:29;;;;;;;100.75;21.35;;;;;;;;;;4961536;28;21891;-63
2022/01/26 07:01:57;;;;;;;83.70;21.60;;;;;;;;;;4943578;28;20048;-62
2022/01/26 07:04:23;;;;;;;112.43;25.10;;;;;;;;;;4945209;28;20031;-60
2022/01/26 07:06:51;;;;;;;109.75;22.27;;;;;;;;;;4960329;28;20941;-61
2022/01/26 07:09:16;;;;;;;116.78;22.35;;;;;;;;;;4960509;28;20030;-61
2022/01/26 07:11:42;;;;;;;91.93;21.75;;;;;;;;;;4943620;28;20501;-61
2022/01/26 07:14:22;;;;;;;95.13;22.58;;;;;;;;;;4942681;28;20066;-60
2022/01/26 07:19:51;;;;;;;91.47;22.63;;;;;;;;;;4960791;28;21583;-61
2022/01/26 07:22:16;;;;;;;97.18;21.55;;;;;;;;;;4960605;28;20470;-61
2022/01/26 07:24:41;;;;;;;105.95;24.73;;;;;;;;;;4949965;28;20455;-61
2022/01/26 07:27:10;;;;;;;89.15;23.92;;;;;;;;;;4942864;28;20842;-61
2022/01/26 07:29:39;;;;;;;95.32;21.52;;;;;;;;;;4960016;28;20054;-61
2022/01/26 07:32:07;;;;;;;97.28;23.42;;;;;;;;;;4943186;28;20074;-61
2022/01/26 07:34:36;;;;;;;103.60;23.75;;;;;;;;;;4929416;28;20125;-61
2022/01/26 07:37:06;;;;;;;103.32;23.83;;;;;;;;;;4930629;28;20050;-61
2022/01/26 07:40:00;;;;;;;83.22;23.33;;;;;;;;;;4956161;28;20050;-61
2022/01/26 07:42:25;;;;;;;86.00;23.17;;;;;;;;;;4938048;28;20118;-60
2022/01/26 07:44:53;;;;;;;99.95;24.42;;;;;;;;;;4947793;28;20031;-61
2022/01/26 07:47:23;;;;;;;100.90;25.83;;;;;;;;;;4958969;28;20073;-60
2022/01/26 07:49:55;;;;;;;102.95;23.73;;;;;;;;;;4959490;28;21199;-61
2022/01/26 07:52:24;;;;;;;109.55;25.20;;;;;;;;;;4959238;28;20759;-62
2022/01/26 07:54:53;;;;;;;96.60;24.65;;;;;;;;;;4942414;28;20042;-59
2022/01/26 07:57:22;;;;;;;94.13;23.40;;;;;;;;;;4944149;28;20517;-60
2022/01/26 07:59:50;;;;;;;94.45;21.77;;;;;;;;;;4959746;28;20161;-60
2022/01/26 08:02:16;;;;;;;97.30;23.90;;;;;;;;;;4943722;28;20044;-61
2022/01/26 08:04:41;;;;;;;110.85;23.45;;;;;;;;;;4958828;28;20037;-60
2022/01/26 08:07:09;;;;;;;101.80;23.90;;;;;;;;;;4948431;28;21078;-60
2022/01/26 08:09:43;;;;;;;81.63;21.20;;;;;;;;;;4948820;28;20018;-60
2022/01/26 08:12:12;;;;;;;134.50;29.33;;;;;;;;;;4961685;28;20062;-61
2022/01/26 08:14:40;;;;;;;110.30;26.77;;;;;;;;;;4946367;28;20027;-61
2022/01/26 08:17:09;;;;;;;98.80;24.13;;;;;;;;;;4960475;28;20043;-61
2022/01/26 08:19:35;;;;;;;103.90;26.33;;;;;;;;;;4959643;28;20043;-61
2022/01/26 08:22:03;;;;;;;98.93;24.27;;;;;;;;;;4940137;28;20038;-61
2022/01/26 08:24:29;;;;;;;94.57;24.52;;;;;;;;;;4952181;28;20034;-62
2022/01/26 08:27:01;;;;;;;99.72;26.65;;;;;;;;;;4946820;28;20057;-61
2022/01/26 08:29:39;;;;;;;99.93;24.88;;;;;;;;;;4931081;28;20023;-62
2022/01/26 08:32:05;;;;;;;97.60;26.25;;;;;;;;;;4951958;28;20037;-60
2022/01/26 08:34:30;;;;;;;102.00;26.27;;;;;;;;;;4944789;28;20038;-60
2022/01/26 08:36:58;;;;;;;113.10;29.70;;;;;;;;;;4958217;28;20027;-60
2022/01/26 08:39:26;;;;;;;98.78;26.05;;;;;;;;;;4960799;28;20390;-61
2022/01/26 08:41:52;;;;;;;91.30;24.70;;;;;;;;;;4959040;28;20042;-61
2022/01/26 08:44:20;;;;;;;109.47;27.23;;;;;;;;;;4944219;28;20030;-60
2022/01/26 08:46:46;;;;;;;99.72;25.05;;;;;;;;;;4960021;28;20035;-60
2022/01/26 08:49:21;;;;;;;97.47;25.88;;;;;;;;;;4956895;28;20121;-60
2022/01/26 08:51:49;;;;;;;111.13;26.60;;;;;;;;;;4959817;28;20124;-61
2022/01/26 08:54:26;;;;;;;115.57;27.73;;;;;;;;;;4941005;28;20498;-61
2022/01/26 08:56:51;;;;;;;;;;;;;;;;;;4942706;28;20070;-60
2022/01/26 08:59:19;;;;;;;87.82;23.92;;;;;;;;;;4960523;28;20087;-61
2022/01/26 09:01:45;;;;;;;89.68;25.52;;;;;;;;;;4948349;28;20334;-60
2022/01/26 09:04:16;;;;;;;105.60;28.75;;;;;;;;;;4959330;28;20352;-60
2022/01/26 09:06:56;;;;;;;102.87;28.03;;;;;;;;;;4959634;28;20041;-60
2022/01/26 09:09:30;;;;;;;105.20;25.98;;;;;;;;;;4941828;28;20093;-60
2022/01/26 09:11:58;;;;;;;101.25;27.75;;;;;;;;;;4959525;28;20082;-60
2022/01/26 09:14:28;;;;;;;107.13;30.77;;;;;;;;;;4958311;28;20067;-60
2022/01/26 09:17:02;;;;;;;112.13;30.23;;;;;;;;;;4933503;28;20043;-60
2022/01/26 09:19:49;;;;;;;95.30;27.27;;;;;;;;;;4945695;28;20039;-60
2022/01/26 09:22:20;;;;;;;95.05;26.77;;;;;;;;;;4958015;28;20031;-60
2022/01/26 09:24:46;;;;;;;90.78;27.17;;;;;;;;;;4946575;28;20037;-61
2022/01/26 09:27:17;;;;;;;94.72;24.98;;;;;;;;;;4930113;28;20026;-60
2022/01/26 09:29:43;;;;;;;101.38;26.70;;;;;;;;;;4932896;28;20026;-59
2022/01/26 09:32:14;;;;;;;96.97;25.20;;;;;;;;;;4958680;28;20062;-59
2022/01/26 09:34:42;;;;;;;89.53;26.17;;;;;;;;;;4962751;28;20030;-59
2022/01/26 09:37:13;;;;;;;100.57;25.70;;;;;;;;;;4951479;28;20046;-60
2022/01/26 09:39:40;;;;;;;94.80;25.30;;;;;;;;;;4962432;28;21205;-59
2022/01/26 09:42:10;;;;;;;93.15;26.23;;;;;;;;;;4960471;28;20487;-61
2022/01/26 09:44:39;;;;;;;85.00;24.33;;;;;;;;;;4963205;28;20031;-59
2022/01/26 09:47:08;;;;;;;80.07;24.05;;;;;;;;;;4962935;28;20026;-59
2022/01/26 09:49:36;;;;;;;89.72;26.00;;;;;;;;;;4963611;28;20118;-60
2022/01/26 09:52:13;;;;;;;84.60;25.40;;;;;;;;;;4939084;28;20890;-59
2022/01/26 09:54:42;;;;;;;81.63;24.35;;;;;;;;;;4952191;28;20130;-59
2022/01/26 09:57:07;;;;;;;92.03;26.60;;;;;;;;;;4962638;28;20080;-58
2022/01/26 09:59:35;;;;;;;92.13;25.67;;;;;;;;;;4948799;28;20046;-61
2022/01/26 10:02:04;;;;;;;97.00;26.42;;;;;;;;;;4946071;28;20057;-60
2022/01/26 10:07:48;;;;;;;82.18;24.23;;;;;;;;;;4964916;28;21088;-60
2022/01/26 10:15:36;;;;;;;77.10;21.60;;;;;;;;;;4943412;28;20395;-62
2022/01/26 10:18:11;;;;;;;86.00;24.83;;;;;;;;;;4943164;28;20124;-61
2022/01/26 10:20:40;;;;;;;76.45;23.40;;;;;;;;;;4943174;28;20080;-62
2022/01/26 10:23:09;;;;;;;74.60;23.27;;;;;;;;;;4940687;28;20043;-60
2022/01/26 10:25:34;;;;;;;72.30;22.85;;;;;;;;;;4947044;28;20057;-60
2022/01/26 10:28:02;;;;;;;79.60;21.67;;;;;;;;;;4948832;28;20049;-60
2022/01/26 10:34:06;;;;;;;66.43;20.90;;;;;;;;;;4943663;28;20710;-60
2022/01/26 10:36:35;;;;;;;71.90;21.45;;;;;;;;;;4943692;28;20027;-59
2022/01/26 10:39:04;;;;;;;67.05;20.85;;;;;;;;;;4942969;28;20066;-60
2022/01/26 10:41:30;;;;;;;59.78;20.27;;;;;;;;;;4942088;28;20493;-60
2022/01/26 10:43:57;;;;;;;66.70;19.55;;;;;;;;;;4943615;28;20031;-60
2022/01/26 10:46:28;;;;;;;73.32;21.52;;;;;;;;;;4946898;28;20109;-60
2022/01/26 10:49:07;;;;;;;63.00;20.48;;;;;;;;;;4943448;28;20654;-60
2022/01/26 10:55:09;;;;;;;57.05;17.95;;;;;;;;;;4941625;28;20049;-60
2022/01/26 10:57:35;;;;;;;62.25;19.10;;;;;;;;;;4943358;28;20035;-60
2022/01/26 11:00:03;;;;;;;71.30;19.10;;;;;;;;;;4940903;28;21964;-60
2022/01/26 11:05:56;;;;;;;63.72;17.67;;;;;;;;;;4949641;28;20112;-60
2022/01/26 11:08:25;;;;;;;64.45;19.38;;;;;;;;;;4941439;28;20517;-60
2022/01/26 11:10:51;;;;;;;78.80;18.85;;;;;;;;;;4943060;28;20273;-59
2022/01/26 11:17:00;;;;;;;64.68;18.58;;;;;;;;;;4943258;28;20046;-60
2022/01/26 11:19:38;;;;;;;60.55;18.38;;;;;;;;;;4943509;28;20429;-60
2022/01/26 11:22:07;;;;;;;60.63;18.08;;;;;;;;;;4941109;28;20094;-60
2022/01/26 11:24:49;;;;;;;59.92;18.95;;;;;;;;;;4940473;28;20141;-60
2022/01/26 11:30:59;;;;;;;71.88;18.75;;;;;;;;;;4940005;28;20100;-61
2022/01/26 11:33:48;;;;;;;66.82;20.25;;;;;;;;;;4941736;28;20058;-60
2022/01/26 11:36:19;;;;;;;70.72;19.77;;;;;;;;;;4939710;28;20030;-59
2022/01/26 11:47:41;;;;;;;64.97;20.85;;;;;;;;;;4939141;28;20105;-60
2022/01/26 11:50:10;;;;;;;56.67;18.05;;;;;;;;;;4943862;28;20039;-59
2022/01/26 11:52:39;;;;;;;61.15;19.05;;;;;;;;;;4954287;28;20034;-60
2022/01/26 11:55:29;;;;;;;63.45;19.15;;;;;;;;;;4940267;28;20031;-60
2022/01/26 11:58:05;;;;;;;64.72;18.10;;;;;;;;;;4937192;28;20034;-61
2022/01/26 12:00:39;;;;;;;67.95;20.77;;;;;;;;;;4956001;28;20046;-61
2022/01/26 12:03:09;;;;;;;56.58;17.00;;;;;;;;;;4934719;28;20079;-60
2022/01/26 12:05:42;;;;;;;64.55;18.95;;;;;;;;;;4939756;28;20651;-60
2022/01/26 12:08:08;;;;;;;69.88;19.45;;;;;;;;;;4937875;28;21726;-60
2022/01/26 12:10:39;;;;;;;67.93;20.08;;;;;;;;;;4946639;28;20092;-60
2022/01/26 12:13:09;;;;;;;59.60;19.27;;;;;;;;;;4952109;28;20151;-60
2022/01/26 12:15:51;;;;;;;71.85;20.20;;;;;;;;;;4959667;28;20038;-61
2022/01/26 12:44:06;;;;;;;78.85;20.48;;;;;;;;;;4959148;28;20556;-61
2022/01/26 12:50:11;;;;;;;75.53;20.75;;;;;;;;;;4960812;28;20586;-60
2022/01/26 12:52:39;;;;;;;57.75;18.42;;;;;;;;;;4942141;28;20955;-59
2022/01/26 12:55:06;;;;;;;60.05;19.20;;;;;;;;;;4961011;28;20022;-59
2022/01/26 12:57:49;;;;;;;60.15;18.70;;;;;;;;;;4959739;28;20105;-59
2022/01/26 13:00:18;;;;;;;63.83;18.02;;;;;;;;;;4948743;28;20100;-60
2022/01/26 13:02:44;;;;;;;59.55;18.33;;;;;;;;;;4962903;28;20149;-59
2022/01/26 13:05:09;;;;;;;57.30;19.48;;;;;;;;;;4950367;28;20119;-60
2022/01/26 13:07:35;;;;;;;62.03;19.85;;;;;;;;;;4950022;28;20142;-59
2022/01/26 13:10:12;;;;;;;63.72;18.42;;;;;;;;;;4945593;28;20542;-60
2022/01/26 13:12:40;;;;;;;71.05;20.73;;;;;;;;;;4951932;28;20058;-59
2022/01/26 13:30:04;;;;;;;66.93;19.83;;;;;;;;;;4963822;28;20063;-59
2022/01/26 13:38:13;;;;;;;61.35;16.80;;;;;;;;;;4961386;28;20646;-61
2022/01/26 13:50:09;;;;;;;54.15;16.30;;;;;;;;;;4949759;28;20058;-61
2022/01/26 13:52:53;;;;;;;57.42;18.45;;;;;;;;;;4930164;28;20552;-60
2022/01/26 14:01:36;;;;;;;61.10;15.90;;;;;;;;;;4948434;28;20051;-60
2022/01/26 14:04:14;;;;;;;56.78;17.63;;;;;;;;;;4929699;28;20197;-60
2022/01/26 14:06:42;;;;;;;55.92;16.55;;;;;;;;;;4934278;28;20043;-60
2022/01/26 14:12:47;;;;;;;55.95;16.92;;;;;;;;;;4958480;28;20122;-62
2022/01/26 14:15:23;;;;;;;59.20;15.88;;;;;;;;;;4962333;28;20042;-61
2022/01/26 14:21:42;;;;;;;44.65;14.98;;;;;;;;;;4943251;28;20057;-60
2022/01/26 14:26:58;;;;;;;54.20;15.05;;;;;;;;;;4884714;29;20044;-59
2022/01/26 14:50:58;;;;;;;43.83;15.40;;;;;;;;;;4959700;28;20390;-59
2022/01/26 14:51:57;;;;;;;52.15;15.32;;;;;;;;;;4958821;28;20031;-61
2022/01/26 15:50:34;;;;;;;52.03;15.43;;;;;;;;;;4960070;28;20158;-59
2022/01/26 15:53:13;;;;;;;55.67;15.30;;;;;;;;;;4949358;28;20153;-60
2022/01/26 16:08:29;;;;;;;53.30;15.40;;;;;;;;;;4958971;28;20061;-59
2022/01/26 16:37:50;;;;;;;56.40;18.15;;;;;;;;;;4951111;28;20050;-60
2022/01/26 18:13:11;;;;;;;46.93;14.63;;;;;;;;;;4961722;28;20844;-60
2022/01/26 18:25:52;;;;;;;53.17;15.80;;;;;;;;;;4962141;28;20042;-60
2022/01/26 18:32:48;;;;;;;47.58;14.07;;;;;;;;;;4949788;28;20043;-60
2022/01/26 18:46:21;;;;;;;50.22;14.07;;;;;;;;;;4945388;28;20051;-61
2022/01/26 18:51:39;;;;;;;47.75;13.30;;;;;;;;;;4961989;28;20076;-60
2022/01/26 18:54:05;;;;;;;47.72;13.63;;;;;;;;;;4961207;28;20046;-59
2022/01/26 18:56:34;;;;;;;40.80;13.00;;;;;;;;;;4961708;28;20031;-59
2022/01/26 18:59:00;;;;;;;40.90;14.23;;;;;;;;;;4945163;28;20027;-59
2022/01/26 19:01:26;;;;;;;37.05;13.18;;;;;;;;;;4960429;28;20052;-59
2022/01/26 19:03:54;;;;;;;42.28;12.88;;;;;;;;;;4961176;28;20375;-61
2022/01/26 19:06:26;;;;;;;41.50;14.02;;;;;;;;;;4958984;28;20022;-60
2022/01/26 19:08:52;;;;;;;37.47;13.10;;;;;;;;;;4944694;28;20039;-59
2022/01/26 19:11:20;;;;;;;41.25;12.70;;;;;;;;;;4960129;28;20026;-60
2022/01/26 19:13:47;;;;;;;31.63;13.05;;;;;;;;;;4931819;28;20042;-60
2022/01/26 19:16:29;;;;;;;36.92;12.50;;;;;;;;;;4961067;28;20125;-60
2022/01/26 19:27:01;;;;;;;44.05;13.80;;;;;;;;;;4943060;28;20034;-61
2022/01/26 19:43:35;;;;;;;35.80;12.15;;;;;;;;;;4959085;28;20043;-62
2022/01/26 19:51:03;;;;;;;37.10;12.50;;;;;;;;;;4942189;28;20034;-59
2022/01/26 19:53:32;;;;;;;48.33;14.55;;;;;;;;;;4960005;28;21136;-59
2022/01/26 19:55:57;;;;;;;37.47;12.90;;;;;;;;;;4943603;28;20047;-61
2022/01/26 19:58:28;;;;;;;34.75;12.85;;;;;;;;;;4941333;28;20047;-59
2022/01/26 20:00:55;;;;;;;42.78;14.48;;;;;;;;;;4941378;28;20050;-60
2022/01/26 20:03:21;;;;;;;41.75;14.43;;;;;;;;;;4959074;28;20656;-61
2022/01/26 20:05:51;;;;;;;52.22;13.45;;;;;;;;;;4949947;28;20039;-60
2022/01/26 20:10:52;;;;;;;36.97;13.68;;;;;;;;;;4941188;28;20030;-60
2022/01/26 20:13:25;;;;;;;37.00;13.93;;;;;;;;;;4943961;28;20137;-59
2022/01/26 20:15:51;;;;;;;49.40;13.38;;;;;;;;;;4950330;28;20038;-61
2022/01/26 20:18:21;;;;;;;47.20;13.70;;;;;;;;;;4949257;28;20600;-61
2022/01/26 20:20:47;;;;;;;57.42;15.55;;;;;;;;;;4958892;28;20174;-60
2022/01/26 20:23:15;;;;;;;43.97;14.43;;;;;;;;;;4958389;28;20065;-60
2022/01/26 20:25:48;;;;;;;44.35;13.57;;;;;;;;;;4949192;28;20038;-59
2022/01/26 20:28:16;;;;;;;43.42;13.50;;;;;;;;;;4949560;28;20039;-60
2022/01/26 20:30:45;;;;;;;43.22;13.05;;;;;;;;;;4961225;28;20022;-60
2022/01/26 20:33:11;;;;;;;42.72;13.65;;;;;;;;;;4956857;28;20045;-61
2022/01/26 20:35:39;;;;;;;37.45;13.77;;;;;;;;;;4959133;28;20019;-60
2022/01/26 20:38:05;;;;;;;46.63;13.23;;;;;;;;;;4959720;28;20437;-59
2022/01/26 20:40:34;;;;;;;35.22;12.70;;;;;;;;;;4961064;28;20038;-60
2022/01/26 20:42:59;;;;;;;45.45;14.10;;;;;;;;;;4943602;28;21092;-61
2022/01/26 20:45:29;;;;;;;38.35;12.63;;;;;;;;;;4949175;28;20066;-61
2022/01/26 20:48:01;;;;;;;34.30;13.10;;;;;;;;;;4958507;28;20152;-61
2022/01/26 20:50:32;;;;;;;47.83;13.60;;;;;;;;;;4948364;28;20039;-61
2022/01/26 20:53:02;;;;;;;42.25;12.27;;;;;;;;;;4951110;28;20773;-60
2022/01/26 20:55:31;;;;;;;36.17;12.95;;;;;;;;;;4942465;28;20031;-59
2022/01/26 20:57:56;;;;;;;42.10;13.18;;;;;;;;;;4961639;28;20065;-59
2022/01/26 21:00:22;;;;;;;42.15;13.80;;;;;;;;;;4914706;28;20175;-60
2022/01/26 21:02:53;;;;;;;53.88;13.05;;;;;;;;;;4959415;28;20034;-59
2022/01/26 21:05:20;;;;;;;43.65;12.45;;;;;;;;;;4959910;28;20031;-61
2022/01/26 21:07:49;;;;;;;32.72;12.15;;;;;;;;;;4963103;28;20169;-59
2022/01/26 21:10:15;;;;;;;41.80;13.82;;;;;;;;;;4936479;28;20059;-61
2022/01/26 21:12:41;;;;;;;38.78;11.77;;;;;;;;;;4952616;28;20030;-60
2022/01/26 21:15:09;;;;;;;45.20;12.93;;;;;;;;;;4940555;28;20166;-60
2022/01/26 21:17:35;;;;;;;38.75;13.75;;;;;;;;;;4951681;28;20039;-60
2022/01/26 21:20:03;;;;;;;46.13;12.82;;;;;;;;;;4958881;28;20090;-58
2022/01/26 21:22:29;;;;;;;48.65;13.88;;;;;;;;;;4960278;28;20026;-60
2022/01/26 21:25:02;;;;;;;45.20;13.63;;;;;;;;;;4931161;28;21916;-58
2022/01/26 21:27:28;;;;;;;48.80;14.43;;;;;;;;;;4930273;28;20045;-61
2022/01/26 21:29:55;;;;;;;36.88;14.25;;;;;;;;;;4947597;28;20130;-61
2022/01/26 21:32:21;;;;;;;46.05;14.57;;;;;;;;;;4945513;28;20038;-59
2022/01/26 21:34:52;;;;;;;40.50;13.45;;;;;;;;;;4962427;28;20033;-60
2022/01/26 21:37:18;;;;;;;44.50;13.20;;;;;;;;;;4963038;28;20061;-61
2022/01/26 21:39:44;;;;;;;36.53;12.57;;;;;;;;;;4935858;28;20624;-60
2022/01/26 21:42:10;;;;;;;49.65;13.35;;;;;;;;;;4952556;28;20064;-60
2022/01/26 21:44:41;;;;;;;36.90;13.80;;;;;;;;;;4963404;28;20108;-62
2022/01/26 21:47:08;;;;;;;47.42;14.73;;;;;;;;;;4954653;28;20117;-60
2022/01/26 21:49:39;;;;;;;45.70;14.02;;;;;;;;;;4947834;28;20035;-61
2022/01/26 21:52:04;;;;;;;31.70;12.18;;;;;;;;;;4935695;28;20112;-61
2022/01/26 21:54:30;;;;;;;42.05;13.10;;;;;;;;;;4938949;28;20474;-59
2022/01/26 21:56:55;;;;;;;44.30;14.05;;;;;;;;;;4963113;28;20043;-59
2022/01/26 21:59:25;;;;;;;39.63;12.57;;;;;;;;;;4964453;28;20042;-61
2022/01/26 22:01:51;;;;;;;46.78;13.52;;;;;;;;;;4960350;28;20033;-60
2022/01/26 22:04:20;;;;;;;42.53;12.48;;;;;;;;;;4963296;28;20037;-61
2022/01/26 22:06:45;;;;;;;43.65;14.10;;;;;;;;;;4961724;28;20089;-60
2022/01/26 22:09:11;;;;;;;41.90;13.77;;;;;;;;;;4946824;28;20035;-58
2022/01/26 22:11:39;;;;;;;44.38;13.75;;;;;;;;;;4962809;28;20042;-59
2022/01/26 22:14:13;;;;;;;35.78;12.63;;;;;;;;;;4943020;28;20078;-61
2022/01/26 22:16:41;;;;;;;49.67;14.15;;;;;;;;;;4959474;28;20113;-59
2022/01/26 22:19:06;;;;;;;42.42;12.57;;;;;;;;;;4947825;28;20035;-59
2022/01/26 22:21:34;;;;;;;39.70;13.50;;;;;;;;;;4932745;28;20774;-57
2022/01/26 22:24:06;;;;;;;39.47;12.65;;;;;;;;;;4943709;28;20092;-60
2022/01/26 22:26:34;;;;;;;45.65;12.48;;;;;;;;;;4945560;28;20027;-59
2022/01/26 22:29:02;;;;;;;42.75;12.85;;;;;;;;;;4942523;28;20035;-60